Time;durP1;ratioP1;P1;durP2;ratioP2;P2;SDS_P1;SDS_P2;PMS_P1;PMS_P2;Temp;Humidity;BMP_temperature;BMP_pressure;BME280_temperature;BME280_humidity;BME280_pressure;Samples;Min_cycle;Max_cycle;Signal;HPM_P1;HPM_P2
2021/10/15 00:00:48;;;;;;;18.37;11.73;;;;;;;7.20;80.79;100978.98;1781752;80;21338;-74
2021/10/15 00:03:46;;;;;;;15.85;11.20;;;;;;;7.18;80.80;100973.69;1782148;80;21326;-74
2021/10/15 00:06:51;;;;;;;17.32;10.90;;;;;;;7.20;80.86;100967.62;1782284;80;21286;-75
2021/10/15 00:09:56;;;;;;;19.25;10.18;;;;;;;7.22;80.98;100977.86;1782504;80;21727;-74
2021/10/15 00:13:02;;;;;;;14.47;9.03;;;;;;;7.24;81.15;100977.20;1782296;80;21346;-75
2021/10/15 00:16:08;;;;;;;16.17;9.68;;;;;;;7.28;81.19;100981.38;1781815;80;21325;-75
2021/10/15 00:19:15;;;;;;;18.85;9.20;;;;;;;7.34;81.04;100974.04;1781000;80;21180;-75
2021/10/15 00:22:21;;;;;;;19.73;9.23;;;;;;;7.39;80.90;100976.34;1780957;80;21310;-75
2021/10/15 00:25:26;;;;;;;11.95;8.20;;;;;;;7.43;80.62;100972.31;1781218;80;21746;-75
2021/10/15 00:28:33;;;;;;;14.38;8.65;;;;;;;7.48;80.60;100975.98;1782369;80;21345;-75
2021/10/15 00:31:38;;;;;;;16.95;8.33;;;;;;;7.50;80.81;100971.27;1781433;80;21203;-75
2021/10/15 00:34:43;;;;;;;15.83;8.78;;;;;;;7.50;81.09;100976.72;1781919;80;21874;-75
2021/10/15 00:37:49;;;;;;;15.18;9.20;;;;;;;7.51;81.23;100987.45;1782403;80;21302;-75
2021/10/15 00:40:55;;;;;;;15.00;9.43;;;;;;;7.50;81.00;100987.61;1782492;80;21176;-75
2021/10/15 00:44:11;;;;;;;17.67;10.40;;;;;;;7.51;80.80;100991.53;1782409;80;21354;-75
2021/10/15 00:47:17;;;;;;;15.50;9.95;;;;;;;7.50;80.52;100986.24;1781070;80;21803;-75
2021/10/15 00:50:23;;;;;;;14.70;9.95;;;;;;;7.46;80.30;100990.24;1782560;80;21750;-75
2021/10/15 00:53:29;;;;;;;18.20;10.90;;;;;;;7.39;80.30;100988.09;1782667;80;21231;-75
2021/10/15 00:56:36;;;;;;;17.67;9.20;;;;;;;7.32;80.56;100989.63;1781033;80;21357;-75
2021/10/15 00:59:41;;;;;;;14.75;9.90;;;;;;;7.26;80.89;101000.22;1782371;80;21815;-75
2021/10/15 01:02:48;;;;;;;20.57;9.88;;;;;;;7.22;81.42;101000.13;1781174;80;21274;-75
2021/10/15 01:05:54;;;;;;;17.50;10.05;;;;;;;7.20;81.92;100992.12;1781591;80;21311;-74
2021/10/15 01:09:00;;;;;;;14.75;9.65;;;;;;;7.18;82.51;100991.38;1782717;80;21295;-74
2021/10/15 01:12:10;;;;;;;14.15;10.08;;;;;;;7.17;82.97;100995.09;1782536;80;21299;-76
2021/10/15 01:15:15;;;;;;;15.03;8.98;;;;;;;7.16;83.34;100996.11;1781973;80;21588;-76
2021/10/15 01:18:22;;;;;;;14.23;9.35;;;;;;;7.15;83.69;100992.53;1780084;80;21215;-76
2021/10/15 01:21:28;;;;;;;15.18;10.68;;;;;;;7.08;83.87;100994.56;1782367;80;21290;-76
2021/10/15 01:24:34;;;;;;;14.73;10.93;;;;;;;7.01;84.32;100998.34;1782388;80;21314;-76
2021/10/15 01:27:39;;;;;;;16.02;10.35;;;;;;;6.98;84.79;100999.97;1780988;80;21167;-76
2021/10/15 01:30:46;;;;;;;19.50;9.75;;;;;;;6.96;85.06;100995.14;1780863;80;21235;-76
2021/10/15 01:33:52;;;;;;;14.70;10.35;;;;;;;6.97;85.35;101005.55;1781021;79;21179;-76
2021/10/15 01:36:58;;;;;;;20.95;10.05;;;;;;;6.96;85.42;101004.66;1781073;80;21299;-76
2021/10/15 01:40:04;;;;;;;18.80;10.03;;;;;;;7.00;85.42;101006.11;1781176;80;21295;-76
2021/10/15 01:43:11;;;;;;;16.73;9.55;;;;;;;7.02;85.37;101004.64;1782284;80;21847;-76
2021/10/15 01:46:16;;;;;;;16.93;11.30;;;;;;;7.04;85.35;101011.65;1781550;80;21735;-76
2021/10/15 01:49:21;;;;;;;18.82;11.93;;;;;;;7.01;85.40;101005.61;1782605;80;21179;-76
2021/10/15 01:52:27;;;;;;;16.37;9.75;;;;;;;7.01;85.41;101005.14;1782563;80;21334;-75
2021/10/15 01:55:33;;;;;;;21.68;11.60;;;;;;;7.04;85.41;101003.48;1782392;80;21799;-75
2021/10/15 01:58:39;;;;;;;15.53;10.82;;;;;;;7.05;85.41;101004.34;1782575;80;21176;-75
2021/10/15 02:01:45;;;;;;;18.17;11.33;;;;;;;7.07;85.40;101009.17;1781475;80;21322;-75
2021/10/15 02:04:52;;;;;;;21.73;11.73;;;;;;;7.06;85.30;101007.45;1782720;80;21294;-75
2021/10/15 02:07:58;;;;;;;15.28;10.68;;;;;;;7.07;85.26;101005.09;1782469;80;21349;-75
2021/10/15 02:11:05;;;;;;;15.53;11.80;;;;;;;7.06;85.19;101006.09;1782568;80;21302;-75
2021/10/15 02:14:10;;;;;;;18.67;10.88;;;;;;;7.06;85.32;101011.53;1782567;80;21837;-75
2021/10/15 02:17:15;;;;;;;16.00;10.08;;;;;;;7.05;85.43;101013.36;1781246;80;21313;-75
2021/10/15 02:20:22;;;;;;;16.27;10.95;;;;;;;7.05;85.61;101021.53;1781651;80;21325;-75
2021/10/15 02:23:28;;;;;;;13.85;10.13;;;;;;;7.05;85.77;101025.61;1767016;81;21311;-75
2021/10/15 02:26:35;;;;;;;14.83;9.65;;;;;;;7.04;85.89;101022.53;1766322;81;21339;-75
2021/10/15 02:29:41;;;;;;;18.90;11.12;;;;;;;7.03;86.17;101022.67;1766915;81;21862;-76
2021/10/15 02:32:48;;;;;;;20.55;11.45;;;;;;;7.04;86.35;101017.59;1766648;81;21331;-75
2021/10/15 02:35:53;;;;;;;14.93;10.70;;;;;;;7.07;86.37;101015.97;1766871;81;21355;-75
2021/10/15 02:38:59;;;;;;;16.27;10.93;;;;;;;7.09;86.36;101013.45;1766895;81;21193;-75
2021/10/15 02:42:05;;;;;;;17.75;10.78;;;;;;;7.11;86.33;101018.78;1766883;81;21342;-75
2021/10/15 02:45:13;;;;;;;17.95;10.18;;;;;;;7.12;86.46;101024.08;1766988;81;21310;-75
2021/10/15 02:48:18;;;;;;;29.15;10.78;;;;;;;7.15;86.53;101025.64;1766319;81;21378;-76
2021/10/15 02:51:24;;;;;;;18.73;11.70;;;;;;;7.13;86.32;101024.44;1767088;81;21303;-76
2021/10/15 02:54:29;;;;;;;17.37;10.48;;;;;;;7.12;86.18;101036.82;1767029;81;21307;-76
2021/10/15 02:57:35;;;;;;;14.60;9.93;;;;;;;7.11;86.07;101041.91;1765924;81;21358;-76
2021/10/15 03:00:40;;;;;;;15.80;10.35;;;;;;;7.04;85.55;101034.77;1765548;81;22052;-76
2021/10/15 03:03:45;;;;;;;18.42;11.55;;;;;;;6.98;85.61;101033.11;1766060;81;21224;-76
2021/10/15 03:06:52;;;;;;;20.23;11.10;;;;;;;6.95;85.54;101027.42;1765554;81;21350;-77
2021/10/15 03:09:57;;;;;;;18.25;11.68;;;;;;;6.97;85.38;101034.11;1766785;81;21330;-74
2021/10/15 03:13:03;;;;;;;16.32;9.65;;;;;;;6.99;85.29;101030.74;1766951;81;21318;-74
2021/10/15 03:16:10;;;;;;;16.45;10.50;;;;;;;7.02;85.38;101026.40;1765416;81;21743;-75
2021/10/15 03:19:15;;;;;;;19.52;11.30;;;;;;;7.03;85.42;101015.88;1766144;81;21358;-75
2021/10/15 03:22:20;;;;;;;14.53;9.88;;;;;;;7.08;85.51;101022.63;1766931;81;21315;-75
2021/10/15 03:25:26;;;;;;;21.02;11.00;;;;;;;7.09;85.37;101027.56;1766887;81;21347;-75
2021/10/15 03:28:32;;;;;;;19.23;11.48;;;;;;;7.09;85.53;101034.36;1765504;81;21225;-75
2021/10/15 03:31:38;;;;;;;17.48;11.03;;;;;;;7.08;85.64;101043.53;1765625;81;21314;-75
2021/10/15 03:34:45;;;;;;;18.95;11.83;;;;;;;7.09;85.77;101042.52;1765781;81;21342;-75
2021/10/15 03:37:52;;;;;;;17.73;11.25;;;;;;;7.10;85.96;101034.72;1765897;81;21843;-75
2021/10/15 03:40:57;;;;;;;17.12;11.35;;;;;;;7.12;86.13;101026.80;1766953;81;21303;-75
2021/10/15 03:44:02;;;;;;;19.55;12.33;;;;;;;7.11;86.07;101028.31;1766930;81;21204;-75
2021/10/15 03:47:07;;;;;;;16.62;12.37;;;;;;;7.12;86.04;101032.74;1766684;81;21339;-75
2021/10/15 03:50:13;;;;;;;21.05;11.80;;;;;;;7.15;86.07;101031.09;1765942;81;21335;-75
2021/10/15 03:53:18;;;;;;;20.77;13.00;;;;;;;7.15;86.10;101029.73;1734317;81;21350;-76
2021/10/15 03:56:24;;;;;;;23.95;12.60;;;;;;;7.16;86.03;101032.33;1766794;81;21839;-76
2021/10/15 03:59:29;;;;;;;23.73;14.28;;;;;;;7.18;86.14;101033.55;1766900;81;21339;-76
2021/10/15 04:02:34;;;;;;;19.75;13.10;;;;;;;7.18;86.25;101028.11;1766831;81;21772;-76
2021/10/15 04:05:40;;;;;;;23.77;14.87;;;;;;;7.21;86.18;101034.64;1765553;81;21783;-76
2021/10/15 04:08:46;;;;;;;34.40;14.75;;;;;;;7.21;86.22;101026.48;1765637;81;21882;-76
2021/10/15 04:11:53;;;;;;;30.70;15.55;;;;;;;7.25;86.32;101030.66;1766934;81;21306;-76
2021/10/15 04:14:59;;;;;;;22.90;15.63;;;;;;;7.33;86.45;101038.11;1766925;81;21292;-76
2021/10/15 04:18:04;;;;;;;22.42;14.65;;;;;;;7.38;86.29;101036.69;1766350;81;21379;-76
2021/10/15 04:21:10;;;;;;;26.82;16.32;;;;;;;7.41;86.16;101044.59;1763839;80;21337;-76
2021/10/15 04:24:16;;;;;;;26.35;14.68;;;;;;;7.42;86.13;101040.86;1782593;80;21320;-76
2021/10/15 04:27:22;;;;;;;21.07;12.93;;;;;;;7.40;86.10;101045.59;1782281;80;21320;-76
2021/10/15 04:30:27;;;;;;;21.70;12.07;;;;;;;7.36;85.96;101050.09;1782407;80;21821;-76
2021/10/15 04:33:33;;;;;;;14.05;9.95;;;;;;;7.25;85.85;101042.91;1782335;80;21184;-76
2021/10/15 04:36:39;;;;;;;20.57;11.48;;;;;;;7.15;85.86;101046.05;1782526;80;21298;-76
2021/10/15 04:39:44;;;;;;;14.85;11.25;;;;;;;7.06;86.15;101054.55;1782629;80;21306;-76
2021/10/15 04:42:50;;;;;;;18.45;12.05;;;;;;;7.07;86.71;101058.14;1782435;80;21171;-76
2021/10/15 04:45:55;;;;;;;19.65;12.65;;;;;;;7.13;86.86;101048.06;1781285;80;21137;-76
2021/10/15 04:49:00;;;;;;;22.13;15.63;;;;;;;7.19;86.74;101046.14;1781004;80;21223;-76
2021/10/15 04:52:05;;;;;;;36.03;16.12;;;;;;;7.23;86.78;101053.04;1781114;80;21303;-76
2021/10/15 04:55:12;;;;;;;28.65;16.90;;;;;;;7.27;87.09;101053.64;1781008;80;21175;-76
2021/10/15 04:58:18;;;;;;;30.62;17.25;;;;;;;7.36;87.38;101056.39;1782213;80;21298;-76
2021/10/15 05:01:24;;;;;;;29.12;19.40;;;;;;;7.42;87.47;101054.98;1781458;80;21921;-76
2021/10/15 05:04:30;;;;;;;39.42;22.35;;;;;;;7.47;87.58;101053.20;1782583;80;21333;-76
2021/10/15 05:07:35;;;;;;;43.25;26.25;;;;;;;7.52;87.35;101055.01;1782574;80;21227;-76
2021/10/15 05:10:42;;;;;;;50.52;24.43;;;;;;;7.50;87.05;101055.66;1782444;80;21200;-76
2021/10/15 05:13:48;;;;;;;47.78;24.00;;;;;;;7.50;87.12;101057.87;1782496;80;21517;-76
2021/10/15 05:16:53;;;;;;;27.10;16.15;;;;;;;7.53;87.26;101064.89;1782514;80;21917;-75
2021/10/15 05:20:00;;;;;;;31.73;15.72;;;;;;;7.57;87.23;101068.56;1781255;80;21373;-76
2021/10/15 05:23:07;;;;;;;34.75;19.15;;;;;;;7.59;87.09;101076.61;1781414;80;21259;-76
2021/10/15 05:26:13;;;;;;;37.17;24.52;;;;;;;7.64;87.15;101083.36;1766853;81;21302;-76
2021/10/15 05:29:19;;;;;;;47.13;26.60;;;;;;;7.71;87.05;101080.92;1766231;81;21378;-76
2021/10/15 05:32:23;;;;;;;41.08;25.43;;;;;;;7.77;86.95;101089.06;1766854;81;21331;-76
2021/10/15 05:35:29;;;;;;;47.10;29.18;;;;;;;7.84;86.85;101091.58;1766940;81;21331;-76
2021/10/15 05:38:34;;;;;;;40.78;25.10;;;;;;;7.92;86.97;101087.16;1766948;81;21816;-76
2021/10/15 05:41:40;;;;;;;35.40;21.48;;;;;;;8.04;86.65;101094.69;1767011;81;21312;-76
2021/10/15 05:44:47;;;;;;;37.63;22.95;;;;;;;8.11;86.41;101091.77;1766981;81;21367;-76
2021/10/15 05:47:53;;;;;;;40.70;24.07;;;;;;;8.21;86.13;101089.06;1766888;81;21859;-76
2021/10/15 05:50:59;;;;;;;37.23;23.85;;;;;;;8.30;85.95;101080.03;1766593;81;21307;-76
2021/10/15 05:54:04;;;;;;;34.75;22.45;;;;;;;8.42;85.27;101087.58;1766956;81;21616;-76
2021/10/15 06:00:19;;;;;;;35.35;22.10;;;;;;;8.68;84.06;101090.09;1765522;81;21776;-75
2021/10/15 06:03:25;;;;;;;39.85;25.50;;;;;;;8.77;83.49;101088.87;1766982;81;21188;-75
2021/10/15 06:16:46;;;;;;;44.58;29.12;;;;;;;9.28;85.93;101094.43;1766822;81;21228;-75
2021/10/15 06:19:52;;;;;;;45.00;29.50;;;;;;;9.44;86.78;101100.95;1765668;81;21184;-75
2021/10/15 06:22:55;;;;;;;43.35;29.18;;;;;;;9.65;87.33;101102.62;1766727;81;21284;-75
2021/10/15 06:26:01;;;;;;;43.17;29.45;;;;;;;9.87;87.44;101096.72;1767057;81;21319;-75
2021/10/15 06:29:06;;;;;;;35.63;23.12;;;;;;;10.10;86.93;101094.94;1765395;81;21866;-75
2021/10/15 06:32:13;;;;;;;35.10;24.37;;;;;;;10.31;86.09;101101.02;1765759;81;21215;-75
2021/10/15 06:35:17;;;;;;;40.15;25.32;;;;;;;10.43;85.15;101101.12;1766825;81;21302;-75
2021/10/15 06:38:23;;;;;;;35.70;22.32;;;;;;;10.59;84.28;101103.67;1766717;81;21208;-75
2021/10/15 06:41:29;;;;;;;34.75;23.70;;;;;;;10.67;83.16;101099.62;1765488;81;21244;-75
2021/10/15 06:44:34;;;;;;;37.53;23.32;;;;;;;10.72;82.52;101095.39;1766883;81;21834;-75
2021/10/15 06:47:40;;;;;;;34.58;23.52;;;;;;;10.77;82.11;101090.81;1766913;81;21307;-75
2021/10/15 06:50:45;;;;;;;32.00;22.07;;;;;;;10.81;81.92;101092.22;1766013;81;21326;-76
2021/10/15 06:53:50;;;;;;;31.10;20.17;;;;;;;10.93;81.43;101094.20;1766917;81;21185;-76
2021/10/15 06:56:55;;;;;;;30.00;17.95;;;;;;;11.06;80.16;101086.95;1767074;81;21303;-75
2021/10/15 07:00:01;;;;;;;25.95;16.23;;;;;;;11.17;78.64;101083.93;1766708;81;21193;-75
2021/10/15 07:03:07;;;;;;;27.22;16.17;;;;;;;11.28;77.03;101085.02;1765336;81;21200;-75
2021/10/15 07:06:13;;;;;;;22.77;15.75;;;;;;;11.40;76.17;101072.77;1766720;81;21318;-76
2021/10/15 07:09:19;;;;;;;22.40;14.07;;;;;;;11.47;74.93;101071.59;1766950;81;21176;-76
2021/10/15 07:12:26;;;;;;;27.10;15.72;;;;;;;11.51;73.56;101060.14;1765557;80;21772;-76
2021/10/15 07:15:32;;;;;;;25.37;15.30;;;;;;;11.61;72.63;101070.12;1765465;81;21241;-75
2021/10/15 07:18:42;;;;;;;20.68;12.73;;;;;;;11.69;72.32;101067.42;1766879;81;21312;-76
2021/10/15 07:21:47;;;;;;;21.20;10.90;;;;;;;11.78;71.12;101066.43;1765310;81;21907;-76
2021/10/15 07:24:53;;;;;;;22.20;12.10;;;;;;;11.87;69.38;101064.61;1767120;80;21768;-76
2021/10/15 07:27:58;;;;;;;21.95;12.82;;;;;;;11.94;68.04;101063.76;1775042;81;21875;-76
2021/10/15 07:31:06;;;;;;;21.57;14.13;;;;;;;11.99;68.14;101064.63;1774326;81;21360;-75
2021/10/15 07:34:12;;;;;;;19.52;11.38;;;;;;;12.05;68.14;101064.50;1775148;81;21891;-76
2021/10/15 07:37:18;;;;;;;16.65;9.88;;;;;;;12.11;67.49;101071.52;1774986;81;21853;-75
2021/10/15 07:40:25;;;;;;;22.05;10.88;;;;;;;12.13;65.07;101063.13;1774888;81;21192;-76
2021/10/15 07:43:30;;;;;;;13.88;9.20;;;;;;;12.12;64.67;101068.27;1773428;81;21269;-76
2021/10/15 07:46:36;;;;;;;16.15;8.70;;;;;;;12.16;64.48;101062.80;1773667;81;21312;-76
2021/10/15 07:49:41;;;;;;;15.68;9.48;;;;;;;12.21;63.79;101064.00;1773746;81;21186;-75
2021/10/15 07:52:50;;;;;;;18.60;10.35;;;;;;;12.24;63.33;101059.56;1774880;81;21205;-76
2021/10/15 07:55:56;;;;;;;12.80;7.22;;;;;;;12.29;63.79;101054.94;1775064;81;21297;-75
2021/10/15 07:59:02;;;;;;;11.55;6.53;;;;;;;12.35;63.03;101058.37;1774993;81;21194;-75
2021/10/15 08:02:09;;;;;;;9.75;6.60;;;;;;;12.43;61.54;101052.89;1773924;81;21902;-75
2021/10/15 08:05:17;;;;;;;12.90;7.55;;;;;;;12.49;60.94;101059.06;1775101;81;21292;-74
2021/10/15 08:08:23;;;;;;;15.25;7.62;;;;;;;12.48;60.99;101060.09;1774575;81;21863;-75
2021/10/15 08:11:29;;;;;;;12.98;8.43;;;;;;;12.50;60.43;101063.52;1774459;81;21327;-76
2021/10/15 08:14:35;;;;;;;14.85;8.78;;;;;;;12.52;60.25;101066.97;1775233;81;21300;-75
2021/10/15 08:17:40;;;;;;;11.90;7.90;;;;;;;12.57;60.71;101065.59;1775129;81;21737;-75
2021/10/15 08:20:46;;;;;;;14.60;8.15;;;;;;;12.59;59.68;101070.39;1775201;81;21840;-75
2021/10/15 08:23:52;;;;;;;14.38;8.33;;;;;;;12.58;59.92;101074.17;1774097;81;21870;-75
2021/10/15 08:26:57;;;;;;;12.47;7.47;;;;;;;12.62;59.90;101068.17;1767562;80;21367;-76
2021/10/15 08:30:03;;;;;;;12.82;7.45;;;;;;;12.69;58.96;101066.95;1766857;81;21780;-76
2021/10/15 08:33:09;;;;;;;11.25;7.37;;;;;;;12.73;58.29;101066.44;1765786;81;21193;-76
2021/10/15 08:36:15;;;;;;;11.28;7.30;;;;;;;12.77;58.28;101068.33;1765479;81;21189;-76
2021/10/15 08:39:23;;;;;;;14.40;8.53;;;;;;;12.76;57.34;101051.52;1766313;81;21264;-76
2021/10/15 08:42:28;;;;;;;13.00;7.12;;;;;;;12.75;56.97;101048.41;1765947;81;21196;-76
2021/10/15 08:45:37;;;;;;;19.32;7.33;;;;;;;12.77;57.00;101051.34;1767019;81;21710;-76
2021/10/15 08:48:45;;;;;;;10.58;7.05;;;;;;;12.79;56.97;101049.78;1765480;81;21201;-76
2021/10/15 08:51:52;;;;;;;13.03;7.28;;;;;;;12.80;56.13;101041.92;1765475;81;21606;-76
2021/10/15 08:54:58;;;;;;;14.68;8.30;;;;;;;12.82;55.40;101035.73;1766079;81;21414;-76
2021/10/15 08:58:05;;;;;;;15.60;7.60;;;;;;;12.82;54.69;101031.61;1766792;81;21354;-76
2021/10/15 09:01:11;;;;;;;10.03;6.80;;;;;;;12.83;55.23;101030.57;1766104;81;21316;-75
2021/10/15 09:04:20;;;;;;;12.28;7.62;;;;;;;12.83;55.05;101025.08;1767043;81;21347;-75
2021/10/15 09:07:23;;;;;;;10.78;6.58;;;;;;;12.85;54.25;101021.66;1767098;81;21969;-75
2021/10/15 09:10:29;;;;;;;10.93;6.83;;;;;;;12.86;54.48;101024.74;1765953;81;21933;-75
2021/10/15 09:13:34;;;;;;;9.75;6.70;;;;;;;12.88;54.58;101027.30;1744051;81;21208;-75
2021/10/15 09:17:08;;;;;;;12.98;7.40;;;;;;;12.91;55.13;101019.58;1766992;81;21372;-76
2021/10/15 09:20:15;;;;;;;10.58;6.87;;;;;;;12.94;54.84;101019.25;1767011;81;21197;-76
2021/10/15 09:23:22;;;;;;;9.98;6.17;;;;;;;12.96;55.13;101018.55;1765672;81;21200;-76
2021/10/15 09:26:29;;;;;;;17.02;6.95;;;;;;;13.01;55.16;101012.52;1765987;81;21304;-76
2021/10/15 09:29:50;;;;;;;12.98;6.55;;;;;;;13.03;54.57;101005.84;1759512;80;21298;-76
2021/10/15 09:33:07;;;;;;;9.08;6.62;;;;;;;13.06;54.67;101005.98;1781545;80;21881;-76
2021/10/15 09:36:14;;;;;;;9.68;6.78;;;;;;;13.08;54.62;100998.45;1781159;80;21353;-75
2021/10/15 09:39:34;;;;;;;11.63;7.83;;;;;;;13.11;54.21;101001.34;1782511;80;21299;-75
2021/10/15 09:42:41;;;;;;;10.98;7.85;;;;;;;13.10;53.79;100999.11;1782164;80;21306;-75
2021/10/15 09:45:54;;;;;;;10.23;7.15;;;;;;;13.04;53.12;100991.06;1782492;80;21829;-75
2021/10/15 09:48:59;;;;;;;13.20;6.85;;;;;;;13.03;53.67;100987.98;1782641;80;21822;-75
2021/10/15 09:52:07;;;;;;;11.90;6.87;;;;;;;13.07;53.74;100991.73;1782604;80;21341;-75
2021/10/15 09:55:17;;;;;;;10.15;7.12;;;;;;;13.10;53.60;100988.12;1782017;80;21203;-75
2021/10/15 09:58:27;;;;;;;10.53;6.70;;;;;;;13.15;52.93;100988.97;1777550;80;21302;-75
2021/10/15 10:01:33;;;;;;;12.33;6.87;;;;;;;13.16;52.79;100986.56;1781558;80;21219;-75
2021/10/15 10:04:38;;;;;;;10.65;7.12;;;;;;;13.19;52.87;100984.84;1782576;80;21184;-75
2021/10/15 10:07:44;;;;;;;10.93;6.10;;;;;;;13.22;52.68;100985.87;1782513;80;21791;-75
2021/10/15 10:10:50;;;;;;;10.03;5.47;;;;;;;13.24;52.61;100987.42;1781837;80;21968;-75
2021/10/15 10:13:55;;;;;;;8.65;6.30;;;;;;;13.26;51.79;100992.73;1781398;80;21346;-75
2021/10/15 10:17:02;;;;;;;9.43;6.05;;;;;;;13.24;51.71;100984.68;1780926;79;21203;-75
2021/10/15 10:20:11;;;;;;;9.68;6.10;;;;;;;13.26;51.93;100978.48;1759530;80;21227;-75
2021/10/15 10:23:41;;;;;;;10.43;7.28;;;;;;;13.31;52.58;100977.94;1781078;80;21287;-76
2021/10/15 10:26:57;;;;;;;11.93;6.22;;;;;;;13.39;52.53;100979.81;1781430;80;21341;-76
2021/10/15 10:30:02;;;;;;;9.45;6.28;;;;;;;13.43;51.95;100967.43;1782588;80;21774;-75
2021/10/15 10:33:09;;;;;;;11.75;6.75;;;;;;;13.46;52.39;100963.81;1781045;80;21211;-75
2021/10/15 10:36:20;;;;;;;8.00;5.55;;;;;;;13.51;52.34;100965.50;1782559;80;21821;-75
2021/10/15 10:39:35;;;;;;;11.95;6.50;;;;;;;13.57;51.63;100969.94;1781051;80;21301;-75
2021/10/15 10:42:40;;;;;;;10.72;6.72;;;;;;;13.60;51.15;100976.44;1781017;80;21882;-76
2021/10/15 10:45:47;;;;;;;10.80;6.37;;;;;;;13.61;50.67;100963.91;1782561;80;21223;-76
2021/10/15 10:49:00;;;;;;;10.58;5.67;;;;;;;13.64;51.00;100964.90;1759113;80;21306;-76
2021/10/15 10:52:20;;;;;;;7.40;5.55;;;;;;;13.65;50.79;100962.52;1782532;80;21297;-76
2021/10/15 10:55:54;;;;;;;10.23;6.40;;;;;;;13.65;50.72;100953.41;1782495;80;21305;-76
2021/10/15 10:58:57;;;;;;;15.05;6.22;;;;;;;13.63;50.85;100953.58;1782606;80;21310;-76
2021/10/15 11:02:20;;;;;;;8.95;6.03;;;;;;;13.60;50.71;100953.07;1781263;80;21385;-76
2021/10/15 11:05:44;;;;;;;10.15;6.20;;;;;;;13.57;51.09;100947.95;1782321;80;21298;-76
2021/10/15 11:08:43;;;;;;;16.70;8.93;;;;;;;13.53;50.88;100951.05;1781451;80;21267;-76
2021/10/15 11:11:50;;;;;;;26.15;14.33;;;;;;;13.50;51.16;100943.19;1784457;79;21333;-76
2021/10/15 11:15:03;;;;;;;23.25;12.28;;;;;;;13.44;52.22;100936.16;1800613;79;21316;-76
2021/10/15 11:18:09;;;;;;;17.73;11.95;;;;;;;13.43;52.06;100931.70;1814369;79;21322;-76
2021/10/15 11:21:20;;;;;;;17.90;11.20;;;;;;;13.47;53.21;100931.69;1814402;79;21168;-76
2021/10/15 11:24:26;;;;;;;19.80;12.55;;;;;;;13.51;52.66;100944.89;1812959;79;22086;-76
2021/10/15 11:27:32;;;;;;;19.45;12.40;;;;;;;13.53;52.44;100942.80;1813563;79;21199;-76
2021/10/15 11:30:42;;;;;;;20.05;11.78;;;;;;;13.51;52.65;100938.02;1813701;78;21250;-76
2021/10/15 11:33:47;;;;;;;19.12;12.15;;;;;;;13.57;52.62;100936.96;1813997;79;21406;-76
2021/10/15 11:36:54;;;;;;;15.35;10.95;;;;;;;13.61;51.65;100937.80;1814098;79;21921;-76
2021/10/15 11:40:13;;;;;;;17.62;10.95;;;;;;;13.67;51.26;100937.58;1814314;79;21299;-76
2021/10/15 11:43:31;;;;;;;15.40;9.53;;;;;;;13.70;51.15;100938.61;1807310;79;21203;-75
2021/10/15 11:46:38;;;;;;;18.32;10.45;;;;;;;13.79;51.45;100940.27;1812788;79;21330;-75
2021/10/15 11:49:45;;;;;;;39.65;22.48;;;;;;;13.89;51.24;100935.91;1814109;79;21357;-75
2021/10/15 11:53:03;;;;;;;22.45;12.20;;;;;;;13.95;51.32;100944.27;1812442;79;21302;-75
2021/10/15 11:56:11;;;;;;;17.05;10.05;;;;;;;14.02;50.85;100935.63;1814143;79;21231;-75
2021/10/15 11:59:16;;;;;;;15.53;9.50;;;;;;;14.09;50.43;100928.01;1789443;79;21196;-75
2021/10/15 12:02:22;;;;;;;16.07;10.08;;;;;;;14.11;49.67;100921.27;1814391;79;21290;-75
2021/10/15 12:05:34;;;;;;;11.57;8.48;;;;;;;14.12;49.89;100923.52;1813313;79;21341;-75
2021/10/15 12:08:39;;;;;;;15.25;8.53;;;;;;;14.17;49.58;100925.20;1814370;79;21302;-75
2021/10/15 12:11:49;;;;;;;21.20;10.43;;;;;;;14.17;49.92;100917.80;1814357;79;21818;-75
2021/10/15 12:14:56;;;;;;;15.35;11.22;;;;;;;14.18;49.43;100917.27;1792270;79;21211;-75
2021/10/15 12:18:18;;;;;;;17.60;10.50;;;;;;;14.17;49.66;100912.81;1782658;80;21532;-75
2021/10/15 12:21:24;;;;;;;18.73;8.50;;;;;;;14.20;49.82;100914.66;1780473;80;22600;-75
2021/10/15 12:24:38;;;;;;;13.38;8.35;;;;;;;14.29;50.01;100919.57;1781701;80;21187;-75
2021/10/15 12:27:46;;;;;;;15.23;9.28;;;;;;;14.35;49.26;100913.84;1781563;80;21255;-75
2021/10/15 12:30:52;;;;;;;14.38;9.25;;;;;;;14.32;49.02;100916.45;1779865;80;21354;-76
2021/10/15 12:34:18;;;;;;;16.10;10.15;;;;;;;14.31;49.10;100919.73;1782642;80;21338;-76
2021/10/15 12:37:24;;;;;;;13.43;9.00;;;;;;;14.26;48.81;100907.58;1781609;80;21869;-75
2021/10/15 12:40:43;;;;;;;18.82;9.45;;;;;;;14.24;49.04;100912.39;1781725;80;21302;-75
2021/10/15 12:43:52;;;;;;;14.65;8.53;;;;;;;14.27;48.95;100914.27;1780954;80;21833;-75
2021/10/15 12:47:13;;;;;;;15.72;9.83;;;;;;;14.29;48.39;100903.06;1782076;80;21176;-75
2021/10/15 12:50:20;;;;;;;14.18;8.90;;;;;;;14.30;47.88;100899.26;1782454;80;21829;-75
2021/10/15 12:53:26;;;;;;;11.95;8.58;;;;;;;14.28;47.89;100904.11;1782393;80;21183;-75
2021/10/15 12:56:38;;;;;;;11.65;7.08;;;;;;;14.25;48.17;100902.56;1780700;80;21350;-75
2021/10/15 12:59:45;;;;;;;15.25;8.30;;;;;;;14.24;48.12;100900.86;1780401;80;21345;-75
2021/10/15 13:02:51;;;;;;;12.55;8.30;;;;;;;14.16;48.00;100902.83;1780593;80;21301;-75
2021/10/15 13:05:59;;;;;;;12.65;7.62;;;;;;;14.06;48.13;100902.56;1781571;80;21128;-76
2021/10/15 13:09:05;;;;;;;12.90;8.58;;;;;;;13.97;48.29;100906.45;1778428;80;21313;-76
2021/10/15 13:12:10;;;;;;;16.32;10.08;;;;;;;13.93;48.59;100902.88;1782612;80;21837;-76
2021/10/15 13:15:17;;;;;;;16.67;8.58;;;;;;;13.89;48.96;100906.50;1782259;80;21393;-75
2021/10/15 13:18:23;;;;;;;12.07;7.97;;;;;;;13.87;49.09;100919.56;1782617;80;21164;-75
2021/10/15 13:21:29;;;;;;;11.50;7.08;;;;;;;13.84;49.21;100911.70;1782521;80;21188;-75
2021/10/15 13:24:35;;;;;;;11.03;7.53;;;;;;;13.81;49.11;100905.18;1782506;80;21326;-75
2021/10/15 13:27:42;;;;;;;10.48;7.33;;;;;;;13.77;48.82;100906.58;1782680;80;21306;-75
2021/10/15 13:30:49;;;;;;;10.78;8.05;;;;;;;13.72;48.95;100913.15;1780976;80;21791;-75
2021/10/15 13:33:54;;;;;;;13.43;7.87;;;;;;;13.68;49.09;100909.05;1783971;80;21305;-75
2021/10/15 13:37:03;;;;;;;13.00;7.20;;;;;;;13.62;49.08;100915.28;1787213;80;21350;-75
2021/10/15 13:40:09;;;;;;;11.90;7.78;;;;;;;13.56;49.35;100905.88;1785705;80;21228;-74
2021/10/15 13:43:31;;;;;;;12.60;7.55;;;;;;;13.50;49.34;100911.58;1785425;80;21347;-75
2021/10/15 13:46:39;;;;;;;15.78;8.45;;;;;;;13.45;49.57;100907.13;1784739;80;21312;-75
2021/10/15 13:49:44;;;;;;;20.08;10.05;;;;;;;13.41;49.75;100914.04;1784046;80;21169;-75
2021/10/15 13:52:48;;;;;;;15.65;9.03;;;;;;;13.35;49.80;100918.00;1785326;80;21891;-76
2021/10/15 13:59:12;;;;;;;17.32;8.73;;;;;;;13.21;50.37;100918.21;1785330;80;21268;-76
2021/10/15 14:02:14;;;;;;;19.32;11.03;;;;;;;13.14;50.53;100916.70;1785670;80;21338;-76
2021/10/15 14:05:18;;;;;;;17.75;10.13;;;;;;;13.08;50.64;100910.56;1765728;80;21303;-76
2021/10/15 14:08:24;;;;;;;14.58;9.48;;;;;;;13.02;50.90;100912.63;1785498;80;21300;-76
2021/10/15 14:11:29;;;;;;;17.10;9.95;;;;;;;12.95;50.96;100915.23;1785538;80;21840;-76
2021/10/15 14:14:28;;;;;;;16.23;9.35;;;;;;;12.90;51.08;100908.05;1785122;80;21330;-76
2021/10/15 14:17:33;;;;;;;17.98;9.80;;;;;;;12.83;51.33;100901.54;1784463;80;21854;-75
2021/10/15 14:20:38;;;;;;;17.55;10.35;;;;;;;12.77;51.50;100901.73;1785628;80;21303;-76
2021/10/15 14:23:42;;;;;;;17.02;10.50;;;;;;;12.70;51.63;100895.73;1785573;80;21939;-76
2021/10/15 14:26:48;;;;;;;16.23;10.08;;;;;;;12.63;51.93;100896.97;1785113;80;21177;-76
2021/10/15 14:29:53;;;;;;;18.02;9.83;;;;;;;12.56;52.23;100895.95;1785112;80;21331;-76
2021/10/15 14:33:01;;;;;;;17.95;9.65;;;;;;;12.48;52.53;100887.76;1783045;80;21768;-76
2021/10/15 14:36:06;;;;;;;17.75;10.20;;;;;;;12.41;52.57;100880.72;1783315;80;21828;-76